Accueil
METAR-TAF:

METAR-TAF

Aéroports :

Aéroport international de Nouakchott-Oumtounsy

Nouakchott, Mauritanie

latitude: 18-18-36N, longitude: 015-58-11W, altitude: 3 m

Observation

Le bulletin a été fait il y a 23 minutes, à 15:30 UTC
Vent 5 kt de est/nord-est, variant entre nord et est
Température 32°C
Humidité 10%
Pression 1012 hPa
Visibilité 10 km ou plus
pas de nuages en-dessous de 1500 mètres et pas de cumulonimbus.

METAR: GQNO 211530Z 06005KT 010V100 CAVOK 32/M04 Q1012 NOSIG

Heure: 15:53 (15:53 UTC)

Prévision

Le bulletin a été fait il y a 4 heures et 53 minutes, à 11:00 UTC
Prévision valable du 21 à 12 UTC au 22 à 18 UTC
Vent 14 kt de est
Visibilité: 7000 m
Evoluant progressivement
du 21 à 16 UTC au 21 à 18 UTC
Vent 12 kt de nord/nord-ouest
Temporairement
du 22 à 10 UTC au 22 à 16 UTC
Vent 12 kt de est/nord-est

TAF: GQNO 211100Z 2112/2218 08014KT 7000 NSC BECMG 2116/2118 34012KT TEMPO 2210/2216 07012KT

Observations et prévisions météorologiques de plus de 4000 aéroports (messages METAR et TAF).

Les stations disponibles sont représentées par des disques jaunes et rouges sur la carte.

Passer la souris dessus pour voir le nom de la station.

Cliquer dessus pour voir les observations et prévisions météorologiques.

Pour changer de carte: cliquez sur les boutons verts avec une croix noire pour zoomer, sur le bouton vert avec un tiret pour effectuer un zoom arrière, ou sur les flèches vertes pour les cartes adjacentes.


METAR-TAF: